sensor_id;sensor_type;location;lat;lon;timestamp;temperature;humidity
62809;DHT22;48848;39.002;-94.584;2023-03-16T00:01:03;20.20;43.30
62809;DHT22;48848;39.002;-94.584;2023-03-16T00:03:29;20.20;43.20
62809;DHT22;48848;39.002;-94.584;2023-03-16T00:05:55;20.20;43.40
62809;DHT22;48848;39.002;-94.584;2023-03-16T00:08:21;20.20;43.40
62809;DHT22;48848;39.002;-94.584;2023-03-16T00:10:47;20.20;43.40
62809;DHT22;48848;39.002;-94.584;2023-03-16T00:13:13;20.20;43.40
62809;DHT22;48848;39.002;-94.584;2023-03-16T00:15:39;20.20;43.70
62809;DHT22;48848;39.002;-94.584;2023-03-16T00:18:05;20.20;43.50
62809;DHT22;48848;39.002;-94.584;2023-03-16T00:20:31;20.20;43.50
62809;DHT22;48848;39.002;-94.584;2023-03-16T00:22:58;20.20;43.70
62809;DHT22;48848;39.002;-94.584;2023-03-16T00:25:24;20.20;43.40
62809;DHT22;48848;39.002;-94.584;2023-03-16T00:27:50;20.20;43.10
62809;DHT22;48848;39.002;-94.584;2023-03-16T00:30:16;20.20;43.00
62809;DHT22;48848;39.002;-94.584;2023-03-16T00:32:41;20.20;43.30
62809;DHT22;48848;39.002;-94.584;2023-03-16T00:35:07;20.10;43.20
62809;DHT22;48848;39.002;-94.584;2023-03-16T00:37:33;20.10;43.40
62809;DHT22;48848;39.002;-94.584;2023-03-16T00:40:01;20.10;43.20
62809;DHT22;48848;39.002;-94.584;2023-03-16T00:42:28;20.10;43.30
62809;DHT22;48848;39.002;-94.584;2023-03-16T00:44:55;20.10;43.30
62809;DHT22;48848;39.002;-94.584;2023-03-16T00:47:31;20.20;43.50
62809;DHT22;48848;39.002;-94.584;2023-03-16T00:49:57;20.20;43.10
62809;DHT22;48848;39.002;-94.584;2023-03-16T00:52:23;20.20;43.10
62809;DHT22;48848;39.002;-94.584;2023-03-16T00:54:51;20.10;43.10
62809;DHT22;48848;39.002;-94.584;2023-03-16T00:57:18;20.10;42.90
62809;DHT22;48848;39.002;-94.584;2023-03-16T00:59:46;20.10;42.70
62809;DHT22;48848;39.002;-94.584;2023-03-16T01:02:13;20.10;42.90
62809;DHT22;48848;39.002;-94.584;2023-03-16T01:04:39;20.10;43.20
62809;DHT22;48848;39.002;-94.584;2023-03-16T01:07:06;20.10;43.10
62809;DHT22;48848;39.002;-94.584;2023-03-16T01:09:32;20.00;43.20
62809;DHT22;48848;39.002;-94.584;2023-03-16T01:12:02;20.10;42.80
62809;DHT22;48848;39.002;-94.584;2023-03-16T01:14:31;20.00;43.00
62809;DHT22;48848;39.002;-94.584;2023-03-16T01:16:57;20.00;43.20
62809;DHT22;48848;39.002;-94.584;2023-03-16T01:19:22;20.00;42.70
62809;DHT22;48848;39.002;-94.584;2023-03-16T01:21:48;20.10;42.80
62809;DHT22;48848;39.002;-94.584;2023-03-16T01:24:14;20.10;42.60
62809;DHT22;48848;39.002;-94.584;2023-03-16T01:26:40;20.10;43.20
62809;DHT22;48848;39.002;-94.584;2023-03-16T01:29:06;20.10;43.00
62809;DHT22;48848;39.002;-94.584;2023-03-16T01:31:32;20.10;43.00
62809;DHT22;48848;39.002;-94.584;2023-03-16T01:33:57;20.00;43.20
62809;DHT22;48848;39.002;-94.584;2023-03-16T01:36:23;20.00;43.10
62809;DHT22;48848;39.002;-94.584;2023-03-16T01:38:49;20.00;43.30
62809;DHT22;48848;39.002;-94.584;2023-03-16T01:41:15;20.00;43.10
62809;DHT22;48848;39.002;-94.584;2023-03-16T01:43:41;20.00;43.00
62809;DHT22;48848;39.002;-94.584;2023-03-16T01:51:34;20.00;42.20
62809;DHT22;48848;39.002;-94.584;2023-03-16T01:56:37;20.00;42.10
62809;DHT22;48848;39.002;-94.584;2023-03-16T01:59:06;20.00;42.90
62809;DHT22;48848;39.002;-94.584;2023-03-16T02:01:34;20.00;43.00
62809;DHT22;48848;39.002;-94.584;2023-03-16T02:04:08;20.00;42.90
62809;DHT22;48848;39.002;-94.584;2023-03-16T02:06:38;19.90;43.70
62809;DHT22;48848;39.002;-94.584;2023-03-16T02:09:04;20.00;43.10
62809;DHT22;48848;39.002;-94.584;2023-03-16T02:11:30;19.90;43.20
62809;DHT22;48848;39.002;-94.584;2023-03-16T02:13:57;19.90;42.90
62809;DHT22;48848;39.002;-94.584;2023-03-16T02:16:27;20.00;42.70
62809;DHT22;48848;39.002;-94.584;2023-03-16T02:18:52;19.90;41.80
62809;DHT22;48848;39.002;-94.584;2023-03-16T02:21:25;20.00;41.70
62809;DHT22;48848;39.002;-94.584;2023-03-16T02:23:53;20.00;42.00
62809;DHT22;48848;39.002;-94.584;2023-03-16T02:31:35;20.10;42.40
62809;DHT22;48848;39.002;-94.584;2023-03-16T02:34:01;20.30;42.50
62809;DHT22;48848;39.002;-94.584;2023-03-16T02:36:28;20.30;43.50
62809;DHT22;48848;39.002;-94.584;2023-03-16T02:38:54;20.40;43.50
62809;DHT22;48848;39.002;-94.584;2023-03-16T02:41:20;20.50;42.70
62809;DHT22;48848;39.002;-94.584;2023-03-16T02:43:51;20.50;43.10
62809;DHT22;48848;39.002;-94.584;2023-03-16T02:46:18;20.60;43.10
62809;DHT22;48848;39.002;-94.584;2023-03-16T02:49:28;20.60;41.40
62809;DHT22;48848;39.002;-94.584;2023-03-16T02:51:35;20.60;42.00
62809;DHT22;48848;39.002;-94.584;2023-03-16T02:54:01;20.60;41.80
62809;DHT22;48848;39.002;-94.584;2023-03-16T02:56:27;20.60;43.10
62809;DHT22;48848;39.002;-94.584;2023-03-16T02:58:54;20.60;42.30
62809;DHT22;48848;39.002;-94.584;2023-03-16T03:01:21;20.60;42.60
62809;DHT22;48848;39.002;-94.584;2023-03-16T03:03:47;20.60;42.30
62809;DHT22;48848;39.002;-94.584;2023-03-16T03:06:13;20.60;42.50
62809;DHT22;48848;39.002;-94.584;2023-03-16T03:08:40;20.50;42.60
62809;DHT22;48848;39.002;-94.584;2023-03-16T03:11:07;20.50;42.90
62809;DHT22;48848;39.002;-94.584;2023-03-16T03:13:33;20.50;43.20
62809;DHT22;48848;39.002;-94.584;2023-03-16T03:15:59;20.50;42.80
62809;DHT22;48848;39.002;-94.584;2023-03-16T03:18:26;20.50;43.10
62809;DHT22;48848;39.002;-94.584;2023-03-16T03:20:52;20.40;43.50
62809;DHT22;48848;39.002;-94.584;2023-03-16T03:23:18;20.40;43.70
62809;DHT22;48848;39.002;-94.584;2023-03-16T03:25:44;20.40;43.60
62809;DHT22;48848;39.002;-94.584;2023-03-16T03:28:10;20.40;43.60
62809;DHT22;48848;39.002;-94.584;2023-03-16T03:30:36;20.40;43.40
62809;DHT22;48848;39.002;-94.584;2023-03-16T03:33:02;20.40;43.10
62809;DHT22;48848;39.002;-94.584;2023-03-16T03:35:27;20.40;43.40
62809;DHT22;48848;39.002;-94.584;2023-03-16T03:37:53;20.50;43.50
62809;DHT22;48848;39.002;-94.584;2023-03-16T03:40:19;20.50;42.90
62809;DHT22;48848;39.002;-94.584;2023-03-16T03:42:45;20.50;42.80
62809;DHT22;48848;39.002;-94.584;2023-03-16T03:45:12;20.50;43.00
62809;DHT22;48848;39.002;-94.584;2023-03-16T03:47:38;20.50;42.90
62809;DHT22;48848;39.002;-94.584;2023-03-16T03:50:05;20.50;43.20
62809;DHT22;48848;39.002;-94.584;2023-03-16T03:52:31;20.50;42.90
62809;DHT22;48848;39.002;-94.584;2023-03-16T03:54:57;20.50;43.30
62809;DHT22;48848;39.002;-94.584;2023-03-16T03:57:23;20.40;43.40
62809;DHT22;48848;39.002;-94.584;2023-03-16T03:59:48;20.50;42.80
62809;DHT22;48848;39.002;-94.584;2023-03-16T04:02:15;20.50;43.20
62809;DHT22;48848;39.002;-94.584;2023-03-16T04:04:41;20.50;43.30
62809;DHT22;48848;39.002;-94.584;2023-03-16T04:07:07;20.50;43.20
62809;DHT22;48848;39.002;-94.584;2023-03-16T04:09:33;20.50;43.00
62809;DHT22;48848;39.002;-94.584;2023-03-16T04:11:59;20.40;43.10
62809;DHT22;48848;39.002;-94.584;2023-03-16T04:14:26;20.40;42.50
62809;DHT22;48848;39.002;-94.584;2023-03-16T04:16:51;20.50;43.80
62809;DHT22;48848;39.002;-94.584;2023-03-16T04:19:19;20.50;43.10
62809;DHT22;48848;39.002;-94.584;2023-03-16T04:21:45;20.40;43.70
62809;DHT22;48848;39.002;-94.584;2023-03-16T04:24:11;20.30;44.00
62809;DHT22;48848;39.002;-94.584;2023-03-16T04:26:42;20.30;44.00
62809;DHT22;48848;39.002;-94.584;2023-03-16T04:29:12;20.30;44.10
62809;DHT22;48848;39.002;-94.584;2023-03-16T04:31:39;20.30;43.90
62809;DHT22;48848;39.002;-94.584;2023-03-16T04:34:05;20.30;43.40
62809;DHT22;48848;39.002;-94.584;2023-03-16T04:36:30;20.30;43.00
62809;DHT22;48848;39.002;-94.584;2023-03-16T04:38:57;20.20;43.40
62809;DHT22;48848;39.002;-94.584;2023-03-16T04:41:23;20.20;43.30
62809;DHT22;48848;39.002;-94.584;2023-03-16T04:43:49;20.20;43.70
62809;DHT22;48848;39.002;-94.584;2023-03-16T04:46:15;20.20;43.40
62809;DHT22;48848;39.002;-94.584;2023-03-16T04:48:41;20.10;43.70
62809;DHT22;48848;39.002;-94.584;2023-03-16T04:51:07;20.20;43.30
62809;DHT22;48848;39.002;-94.584;2023-03-16T04:53:33;20.10;43.70
62809;DHT22;48848;39.002;-94.584;2023-03-16T04:55:59;20.10;43.60
62809;DHT22;48848;39.002;-94.584;2023-03-16T04:58:25;20.20;43.50
62809;DHT22;48848;39.002;-94.584;2023-03-16T05:00:51;20.20;43.50
62809;DHT22;48848;39.002;-94.584;2023-03-16T05:03:17;20.20;43.70
62809;DHT22;48848;39.002;-94.584;2023-03-16T05:05:44;20.10;43.50
62809;DHT22;48848;39.002;-94.584;2023-03-16T05:08:10;20.10;43.10
62809;DHT22;48848;39.002;-94.584;2023-03-16T05:10:36;20.10;43.10
62809;DHT22;48848;39.002;-94.584;2023-03-16T05:13:03;20.10;43.30
62809;DHT22;48848;39.002;-94.584;2023-03-16T05:15:29;20.10;43.30
62809;DHT22;48848;39.002;-94.584;2023-03-16T05:17:55;20.00;43.10
62809;DHT22;48848;39.002;-94.584;2023-03-16T05:20:33;20.00;43.30
62809;DHT22;48848;39.002;-94.584;2023-03-16T05:22:59;19.90;43.70
62809;DHT22;48848;39.002;-94.584;2023-03-16T05:25:25;19.80;44.90
62809;DHT22;48848;39.002;-94.584;2023-03-16T05:27:51;19.80;44.00
62809;DHT22;48848;39.002;-94.584;2023-03-16T05:30:18;19.80;44.20
62809;DHT22;48848;39.002;-94.584;2023-03-16T05:32:44;19.80;44.10
62809;DHT22;48848;39.002;-94.584;2023-03-16T05:35:11;19.90;43.60
62809;DHT22;48848;39.002;-94.584;2023-03-16T05:37:41;19.90;43.60
62809;DHT22;48848;39.002;-94.584;2023-03-16T05:40:09;19.90;43.00
62809;DHT22;48848;39.002;-94.584;2023-03-16T05:42:54;19.80;43.60
62809;DHT22;48848;39.002;-94.584;2023-03-16T05:45:20;19.80;43.70
62809;DHT22;48848;39.002;-94.584;2023-03-16T05:47:46;19.70;44.80
62809;DHT22;48848;39.002;-94.584;2023-03-16T05:50:13;19.70;44.00
62809;DHT22;48848;39.002;-94.584;2023-03-16T05:52:41;19.60;44.00
62809;DHT22;48848;39.002;-94.584;2023-03-16T05:55:09;19.60;44.10
62809;DHT22;48848;39.002;-94.584;2023-03-16T05:57:35;19.60;43.70
62809;DHT22;48848;39.002;-94.584;2023-03-16T06:00:02;19.60;44.00
62809;DHT22;48848;39.002;-94.584;2023-03-16T06:02:36;19.60;43.90
62809;DHT22;48848;39.002;-94.584;2023-03-16T06:05:03;19.60;43.50
62809;DHT22;48848;39.002;-94.584;2023-03-16T06:07:29;19.50;44.10
62809;DHT22;48848;39.002;-94.584;2023-03-16T06:09:55;19.50;44.30
62809;DHT22;48848;39.002;-94.584;2023-03-16T06:12:21;19.50;44.20
62809;DHT22;48848;39.002;-94.584;2023-03-16T06:14:47;19.50;44.20
62809;DHT22;48848;39.002;-94.584;2023-03-16T06:17:12;19.40;44.40
62809;DHT22;48848;39.002;-94.584;2023-03-16T06:19:38;19.50;44.40
62809;DHT22;48848;39.002;-94.584;2023-03-16T06:22:05;19.40;44.30
62809;DHT22;48848;39.002;-94.584;2023-03-16T06:24:31;19.40;44.00
62809;DHT22;48848;39.002;-94.584;2023-03-16T06:26:57;19.40;44.00
62809;DHT22;48848;39.002;-94.584;2023-03-16T06:29:22;19.40;44.00
62809;DHT22;48848;39.002;-94.584;2023-03-16T06:31:48;19.40;44.00
62809;DHT22;48848;39.002;-94.584;2023-03-16T06:34:17;19.30;43.90
62809;DHT22;48848;39.002;-94.584;2023-03-16T06:36:43;19.30;43.50
62809;DHT22;48848;39.002;-94.584;2023-03-16T06:39:09;19.30;43.90
62809;DHT22;48848;39.002;-94.584;2023-03-16T06:41:35;19.30;43.90
62809;DHT22;48848;39.002;-94.584;2023-03-16T06:44:01;19.30;43.90
62809;DHT22;48848;39.002;-94.584;2023-03-16T06:46:27;19.20;43.20
62809;DHT22;48848;39.002;-94.584;2023-03-16T06:48:53;19.20;43.10
62809;DHT22;48848;39.002;-94.584;2023-03-16T06:51:19;19.20;42.90
62809;DHT22;48848;39.002;-94.584;2023-03-16T06:53:45;19.20;43.40
62809;DHT22;48848;39.002;-94.584;2023-03-16T06:56:11;19.20;43.80
62809;DHT22;48848;39.002;-94.584;2023-03-16T06:58:37;19.20;43.80
62809;DHT22;48848;39.002;-94.584;2023-03-16T07:01:03;19.20;44.00
62809;DHT22;48848;39.002;-94.584;2023-03-16T07:03:29;19.20;44.10
62809;DHT22;48848;39.002;-94.584;2023-03-16T07:05:56;19.20;44.30
62809;DHT22;48848;39.002;-94.584;2023-03-16T07:08:22;19.10;44.00
62809;DHT22;48848;39.002;-94.584;2023-03-16T07:10:51;19.10;43.80
62809;DHT22;48848;39.002;-94.584;2023-03-16T07:13:19;19.10;43.80
62809;DHT22;48848;39.002;-94.584;2023-03-16T07:15:45;19.10;43.90
62809;DHT22;48848;39.002;-94.584;2023-03-16T07:18:10;19.00;44.30
62809;DHT22;48848;39.002;-94.584;2023-03-16T07:20:37;19.10;44.10
62809;DHT22;48848;39.002;-94.584;2023-03-16T07:23:03;19.00;44.10
62809;DHT22;48848;39.002;-94.584;2023-03-16T07:25:29;19.00;44.10
62809;DHT22;48848;39.002;-94.584;2023-03-16T07:27:56;19.00;44.20
62809;DHT22;48848;39.002;-94.584;2023-03-16T07:30:22;19.00;44.50
62809;DHT22;48848;39.002;-94.584;2023-03-16T07:32:49;19.00;45.50
62809;DHT22;48848;39.002;-94.584;2023-03-16T07:35:16;19.00;44.40
62809;DHT22;48848;39.002;-94.584;2023-03-16T07:37:42;19.00;43.40
62809;DHT22;48848;39.002;-94.584;2023-03-16T07:40:08;19.00;44.20
62809;DHT22;48848;39.002;-94.584;2023-03-16T07:42:34;18.90;43.80
62809;DHT22;48848;39.002;-94.584;2023-03-16T07:45:01;18.90;44.40
62809;DHT22;48848;39.002;-94.584;2023-03-16T07:47:28;18.90;44.50
62809;DHT22;48848;39.002;-94.584;2023-03-16T07:49:56;18.90;44.40
62809;DHT22;48848;39.002;-94.584;2023-03-16T07:52:22;18.90;44.70
62809;DHT22;48848;39.002;-94.584;2023-03-16T07:54:48;18.90;44.70
62809;DHT22;48848;39.002;-94.584;2023-03-16T07:57:14;18.80;44.80
62809;DHT22;48848;39.002;-94.584;2023-03-16T07:59:40;18.80;44.70
62809;DHT22;48848;39.002;-94.584;2023-03-16T08:02:10;18.80;44.80
62809;DHT22;48848;39.002;-94.584;2023-03-16T08:04:36;18.80;44.10
62809;DHT22;48848;39.002;-94.584;2023-03-16T08:07:02;18.80;44.80
62809;DHT22;48848;39.002;-94.584;2023-03-16T08:09:28;18.80;43.70
62809;DHT22;48848;39.002;-94.584;2023-03-16T08:11:54;18.80;45.00
62809;DHT22;48848;39.002;-94.584;2023-03-16T08:14:20;18.80;43.80
62809;DHT22;48848;39.002;-94.584;2023-03-16T08:16:46;18.70;43.80
62809;DHT22;48848;39.002;-94.584;2023-03-16T08:19:11;18.70;44.20
62809;DHT22;48848;39.002;-94.584;2023-03-16T08:21:37;18.80;44.20
62809;DHT22;48848;39.002;-94.584;2023-03-16T08:24:03;18.70;44.50
62809;DHT22;48848;39.002;-94.584;2023-03-16T08:26:29;18.70;44.00
62809;DHT22;48848;39.002;-94.584;2023-03-16T08:28:55;18.70;44.40
62809;DHT22;48848;39.002;-94.584;2023-03-16T08:31:23;18.70;44.30
62809;DHT22;48848;39.002;-94.584;2023-03-16T08:33:49;18.70;44.60
62809;DHT22;48848;39.002;-94.584;2023-03-16T08:36:16;18.70;44.20
62809;DHT22;48848;39.002;-94.584;2023-03-16T08:38:42;18.70;44.10
62809;DHT22;48848;39.002;-94.584;2023-03-16T08:41:09;18.70;44.00
62809;DHT22;48848;39.002;-94.584;2023-03-16T08:43:36;18.70;44.30
62809;DHT22;48848;39.002;-94.584;2023-03-16T08:46:02;18.60;44.20
62809;DHT22;48848;39.002;-94.584;2023-03-16T08:48:30;18.60;44.40
62809;DHT22;48848;39.002;-94.584;2023-03-16T08:51:01;18.60;44.60
62809;DHT22;48848;39.002;-94.584;2023-03-16T08:53:27;18.60;44.00
62809;DHT22;48848;39.002;-94.584;2023-03-16T08:55:59;18.60;44.10
62809;DHT22;48848;39.002;-94.584;2023-03-16T08:58:25;18.60;44.50
62809;DHT22;48848;39.002;-94.584;2023-03-16T09:00:52;18.60;44.50
62809;DHT22;48848;39.002;-94.584;2023-03-16T09:03:18;18.50;44.60
62809;DHT22;48848;39.002;-94.584;2023-03-16T09:05:44;18.60;44.60
62809;DHT22;48848;39.002;-94.584;2023-03-16T09:08:10;18.60;44.60
62809;DHT22;48848;39.002;-94.584;2023-03-16T09:10:37;18.60;44.40
62809;DHT22;48848;39.002;-94.584;2023-03-16T09:13:02;18.50;44.10
62809;DHT22;48848;39.002;-94.584;2023-03-16T09:15:29;18.60;44.50
62809;DHT22;48848;39.002;-94.584;2023-03-16T09:17:55;18.50;44.50
62809;DHT22;48848;39.002;-94.584;2023-03-16T09:20:24;18.50;44.60
62809;DHT22;48848;39.002;-94.584;2023-03-16T09:22:51;18.50;44.70
62809;DHT22;48848;39.002;-94.584;2023-03-16T09:25:17;18.50;44.20
62809;DHT22;48848;39.002;-94.584;2023-03-16T09:27:44;18.50;44.60
62809;DHT22;48848;39.002;-94.584;2023-03-16T09:30:11;18.50;44.60
62809;DHT22;48848;39.002;-94.584;2023-03-16T09:32:37;18.50;44.70
62809;DHT22;48848;39.002;-94.584;2023-03-16T09:35:04;18.50;44.60
62809;DHT22;48848;39.002;-94.584;2023-03-16T09:37:33;18.40;44.30
62809;DHT22;48848;39.002;-94.584;2023-03-16T09:39:59;18.40;44.50
62809;DHT22;48848;39.002;-94.584;2023-03-16T09:47:35;18.40;44.80
62809;DHT22;48848;39.002;-94.584;2023-03-16T09:50:04;18.40;44.60
62809;DHT22;48848;39.002;-94.584;2023-03-16T09:57:26;18.40;44.30
62809;DHT22;48848;39.002;-94.584;2023-03-16T09:59:53;18.40;44.70
62809;DHT22;48848;39.002;-94.584;2023-03-16T10:02:27;18.30;44.80
62809;DHT22;48848;39.002;-94.584;2023-03-16T10:12:36;18.30;44.70
62809;DHT22;48848;39.002;-94.584;2023-03-16T10:15:19;18.30;44.40
62809;DHT22;48848;39.002;-94.584;2023-03-16T10:20:17;18.30;44.70
62809;DHT22;48848;39.002;-94.584;2023-03-16T10:22:46;18.30;44.60
62809;DHT22;48848;39.002;-94.584;2023-03-16T10:27:44;18.30;44.80
62809;DHT22;48848;39.002;-94.584;2023-03-16T10:32:55;18.20;44.90
62809;DHT22;48848;39.002;-94.584;2023-03-16T10:35:39;18.30;44.90
62809;DHT22;48848;39.002;-94.584;2023-03-16T10:38:19;18.30;44.60
62809;DHT22;48848;39.002;-94.584;2023-03-16T10:40:51;18.30;44.30
62809;DHT22;48848;39.002;-94.584;2023-03-16T10:43:17;18.20;44.40
62809;DHT22;48848;39.002;-94.584;2023-03-16T10:45:43;18.20;45.00
62809;DHT22;48848;39.002;-94.584;2023-03-16T10:48:15;18.20;44.80
62809;DHT22;48848;39.002;-94.584;2023-03-16T10:50:41;18.20;44.50
62809;DHT22;48848;39.002;-94.584;2023-03-16T10:53:30;18.90;43.40
62809;DHT22;48848;39.002;-94.584;2023-03-16T10:55:58;19.60;42.10
62809;DHT22;48848;39.002;-94.584;2023-03-16T10:58:25;20.20;41.20
62809;DHT22;48848;39.002;-94.584;2023-03-16T11:00:51;20.80;40.30
62809;DHT22;48848;39.002;-94.584;2023-03-16T11:03:23;21.30;39.20
62809;DHT22;48848;39.002;-94.584;2023-03-16T11:06:03;21.70;38.50
62809;DHT22;48848;39.002;-94.584;2023-03-16T11:08:33;21.50;37.80
62809;DHT22;48848;39.002;-94.584;2023-03-16T11:11:06;20.40;39.20
62809;DHT22;48848;39.002;-94.584;2023-03-16T11:13:33;19.80;40.40
62809;DHT22;48848;39.002;-94.584;2023-03-16T11:20:54;19.20;44.10
62809;DHT22;48848;39.002;-94.584;2023-03-16T11:23:28;19.10;43.40
62809;DHT22;48848;39.002;-94.584;2023-03-16T11:25:55;19.10;43.80
62809;DHT22;48848;39.002;-94.584;2023-03-16T11:28:36;19.00;43.40
62809;DHT22;48848;39.002;-94.584;2023-03-16T11:33:32;20.60;40.90
62809;DHT22;48848;39.002;-94.584;2023-03-16T11:46:10;19.70;41.90
62809;DHT22;48848;39.002;-94.584;2023-03-16T11:51:20;19.50;43.10
62809;DHT22;48848;39.002;-94.584;2023-03-16T11:54:04;19.50;43.50
62809;DHT22;48848;39.002;-94.584;2023-03-16T11:56:36;19.40;43.60
62809;DHT22;48848;39.002;-94.584;2023-03-16T12:04:17;19.30;43.60
62809;DHT22;48848;39.002;-94.584;2023-03-16T12:09:44;19.30;44.20
62809;DHT22;48848;39.002;-94.584;2023-03-16T12:17:35;19.60;43.10
62809;DHT22;48848;39.002;-94.584;2023-03-16T12:20:24;20.60;41.80
62809;DHT22;48848;39.002;-94.584;2023-03-16T12:22:52;21.10;40.70
62809;DHT22;48848;39.002;-94.584;2023-03-16T12:25:21;21.40;40.10
62809;DHT22;48848;39.002;-94.584;2023-03-16T12:27:51;20.70;40.80
62809;DHT22;48848;39.002;-94.584;2023-03-16T12:33:03;20.00;42.40
62809;DHT22;48848;39.002;-94.584;2023-03-16T12:40:43;19.70;43.60
62809;DHT22;48848;39.002;-94.584;2023-03-16T12:43:22;19.60;44.00
62809;DHT22;48848;39.002;-94.584;2023-03-16T12:48:29;19.50;44.30
62809;DHT22;48848;39.002;-94.584;2023-03-16T12:50:59;19.50;44.60
62809;DHT22;48848;39.002;-94.584;2023-03-16T12:53:43;19.50;44.50
62809;DHT22;48848;39.002;-94.584;2023-03-16T12:56:16;19.40;44.70
62809;DHT22;48848;39.002;-94.584;2023-03-16T12:58:44;19.40;44.70
62809;DHT22;48848;39.002;-94.584;2023-03-16T13:01:11;19.40;44.80
62809;DHT22;48848;39.002;-94.584;2023-03-16T13:03:40;19.50;44.50
62809;DHT22;48848;39.002;-94.584;2023-03-16T13:06:06;19.40;44.80
62809;DHT22;48848;39.002;-94.584;2023-03-16T13:08:42;19.50;44.80
62809;DHT22;48848;39.002;-94.584;2023-03-16T13:11:10;19.40;44.80
62809;DHT22;48848;39.002;-94.584;2023-03-16T13:13:49;19.40;45.00
62809;DHT22;48848;39.002;-94.584;2023-03-16T13:16:24;19.40;44.90
62809;DHT22;48848;39.002;-94.584;2023-03-16T13:18:51;19.40;45.00
62809;DHT22;48848;39.002;-94.584;2023-03-16T13:21:20;19.40;45.50
62809;DHT22;48848;39.002;-94.584;2023-03-16T13:23:54;19.40;45.20
62809;DHT22;48848;39.002;-94.584;2023-03-16T13:29:25;19.40;46.20
62809;DHT22;48848;39.002;-94.584;2023-03-16T13:31:52;19.30;45.90
62809;DHT22;48848;39.002;-94.584;2023-03-16T13:34:20;19.30;46.30
62809;DHT22;48848;39.002;-94.584;2023-03-16T13:36:46;19.40;46.80
62809;DHT22;48848;39.002;-94.584;2023-03-16T13:39:16;19.30;46.50
62809;DHT22;48848;39.002;-94.584;2023-03-16T13:42:03;19.40;46.50
62809;DHT22;48848;39.002;-94.584;2023-03-16T13:44:29;19.40;46.50
62809;DHT22;48848;39.002;-94.584;2023-03-16T13:46:56;19.30;46.60
62809;DHT22;48848;39.002;-94.584;2023-03-16T13:49:22;19.40;46.50
62809;DHT22;48848;39.002;-94.584;2023-03-16T13:51:48;19.40;46.50
62809;DHT22;48848;39.002;-94.584;2023-03-16T13:56:43;19.30;46.50
62809;DHT22;48848;39.002;-94.584;2023-03-16T13:59:09;19.40;46.50
62809;DHT22;48848;39.002;-94.584;2023-03-16T14:01:36;19.20;47.20
62809;DHT22;48848;39.002;-94.584;2023-03-16T14:04:02;19.00;47.80
62809;DHT22;48848;39.002;-94.584;2023-03-16T14:06:33;19.10;48.60
62809;DHT22;48848;39.002;-94.584;2023-03-16T14:09:03;19.10;47.10
62809;DHT22;48848;39.002;-94.584;2023-03-16T14:11:29;19.20;46.70
62809;DHT22;48848;39.002;-94.584;2023-03-16T14:13:58;19.20;46.80
62809;DHT22;48848;39.002;-94.584;2023-03-16T14:16:27;19.20;46.90
62809;DHT22;48848;39.002;-94.584;2023-03-16T14:19:00;19.20;47.00
62809;DHT22;48848;39.002;-94.584;2023-03-16T14:21:27;19.20;46.80
62809;DHT22;48848;39.002;-94.584;2023-03-16T14:23:58;19.20;47.00
62809;DHT22;48848;39.002;-94.584;2023-03-16T14:26:24;19.20;46.60
62809;DHT22;48848;39.002;-94.584;2023-03-16T14:29:00;19.10;47.00
62809;DHT22;48848;39.002;-94.584;2023-03-16T14:31:31;19.20;46.80
62809;DHT22;48848;39.002;-94.584;2023-03-16T14:34:02;19.20;47.20
62809;DHT22;48848;39.002;-94.584;2023-03-16T14:36:36;19.10;47.40
62809;DHT22;48848;39.002;-94.584;2023-03-16T14:39:12;19.10;47.10
62809;DHT22;48848;39.002;-94.584;2023-03-16T14:41:38;19.10;47.30
62809;DHT22;48848;39.002;-94.584;2023-03-16T14:44:04;19.10;47.80
62809;DHT22;48848;39.002;-94.584;2023-03-16T14:46:31;19.10;47.60
62809;DHT22;48848;39.002;-94.584;2023-03-16T14:51:43;19.10;48.00
62809;DHT22;48848;39.002;-94.584;2023-03-16T14:54:13;19.10;47.70
62809;DHT22;48848;39.002;-94.584;2023-03-16T14:56:40;19.10;47.50
62809;DHT22;48848;39.002;-94.584;2023-03-16T14:59:07;19.10;47.40
62809;DHT22;48848;39.002;-94.584;2023-03-16T15:01:34;19.10;47.60
62809;DHT22;48848;39.002;-94.584;2023-03-16T15:04:00;19.00;47.50
62809;DHT22;48848;39.002;-94.584;2023-03-16T15:06:26;19.00;47.60
62809;DHT22;48848;39.002;-94.584;2023-03-16T15:08:52;19.00;47.80
62809;DHT22;48848;39.002;-94.584;2023-03-16T15:11:19;18.90;47.90
62809;DHT22;48848;39.002;-94.584;2023-03-16T15:13:46;18.90;47.80
62809;DHT22;48848;39.002;-94.584;2023-03-16T15:16:12;19.00;47.70
62809;DHT22;48848;39.002;-94.584;2023-03-16T15:18:39;19.00;47.60
62809;DHT22;48848;39.002;-94.584;2023-03-16T15:23:40;19.00;47.80
62809;DHT22;48848;39.002;-94.584;2023-03-16T15:26:10;18.90;48.10
62809;DHT22;48848;39.002;-94.584;2023-03-16T15:28:36;19.00;48.10
62809;DHT22;48848;39.002;-94.584;2023-03-16T15:31:03;18.90;47.80
62809;DHT22;48848;39.002;-94.584;2023-03-16T15:33:29;18.90;48.00
62809;DHT22;48848;39.002;-94.584;2023-03-16T15:35:56;18.90;48.10
62809;DHT22;48848;39.002;-94.584;2023-03-16T15:38:32;18.90;48.10
62809;DHT22;48848;39.002;-94.584;2023-03-16T15:41:00;18.90;48.00
62809;DHT22;48848;39.002;-94.584;2023-03-16T15:43:28;18.90;48.00
62809;DHT22;48848;39.002;-94.584;2023-03-16T15:45:55;18.90;47.80
62809;DHT22;48848;39.002;-94.584;2023-03-16T15:48:21;18.90;47.80
62809;DHT22;48848;39.002;-94.584;2023-03-16T15:50:59;18.90;47.80
62809;DHT22;48848;39.002;-94.584;2023-03-16T15:53:27;18.90;47.80
62809;DHT22;48848;39.002;-94.584;2023-03-16T15:55:56;18.90;48.00
62809;DHT22;48848;39.002;-94.584;2023-03-16T15:58:26;18.90;47.90
62809;DHT22;48848;39.002;-94.584;2023-03-16T16:00:52;18.80;47.70
62809;DHT22;48848;39.002;-94.584;2023-03-16T16:03:20;18.90;47.90
62809;DHT22;48848;39.002;-94.584;2023-03-16T16:05:46;18.80;47.60
62809;DHT22;48848;39.002;-94.584;2023-03-16T16:08:12;18.80;47.80
62809;DHT22;48848;39.002;-94.584;2023-03-16T16:10:39;18.80;47.90
62809;DHT22;48848;39.002;-94.584;2023-03-16T16:13:05;18.80;47.90
62809;DHT22;48848;39.002;-94.584;2023-03-16T16:15:32;18.80;48.10
62809;DHT22;48848;39.002;-94.584;2023-03-16T16:18:01;18.80;48.20
62809;DHT22;48848;39.002;-94.584;2023-03-16T16:20:29;18.80;47.80
62809;DHT22;48848;39.002;-94.584;2023-03-16T16:22:55;18.80;47.90
62809;DHT22;48848;39.002;-94.584;2023-03-16T16:25:25;18.80;48.00
62809;DHT22;48848;39.002;-94.584;2023-03-16T16:27:51;18.80;48.10
62809;DHT22;48848;39.002;-94.584;2023-03-16T16:30:22;18.80;48.30
62809;DHT22;48848;39.002;-94.584;2023-03-16T16:32:48;18.80;48.10
62809;DHT22;48848;39.002;-94.584;2023-03-16T16:35:15;18.70;48.00
62809;DHT22;48848;39.002;-94.584;2023-03-16T16:37:41;18.80;48.20
62809;DHT22;48848;39.002;-94.584;2023-03-16T16:40:13;18.70;48.20